createdAt,value
2022-09-05T00:00:11.844Z,79.07
2022-09-05T00:02:54.354Z,79.20
2022-09-05T00:06:03.208Z,79.84
2022-09-05T00:08:35.850Z,80.19
2022-09-05T00:11:40.892Z,80.66
2022-09-05T00:14:16.567Z,80.51
2022-09-05T00:17:09.931Z,80.84
2022-09-05T00:24:22.302Z,80.74
2022-09-05T00:24:32.142Z,80.89
2022-09-05T00:25:36.254Z,81.12
2022-09-05T00:28:25.971Z,81.00
2022-09-05T00:31:53.464Z,80.87
2022-09-05T00:34:10.971Z,80.98
2022-09-05T00:36:41.232Z,81.07
2022-09-05T00:39:10.683Z,81.22
2022-09-05T00:41:34.336Z,81.01
2022-09-05T00:43:57.471Z,80.96
2022-09-05T00:46:33.817Z,81.10
2022-09-05T00:49:26.684Z,80.67
2022-09-05T00:52:12.599Z,80.78
2022-09-05T00:54:45.952Z,80.92
2022-09-05T00:57:46.670Z,81.21
2022-09-05T01:00:22.800Z,81.01
2022-09-05T01:03:20.819Z,80.88
2022-09-05T01:06:08.515Z,81.00
2022-09-05T01:09:07.871Z,81.26
2022-09-05T01:11:56.022Z,81.15
2022-09-05T01:14:31.660Z,81.18
2022-09-05T01:16:54.459Z,81.10
2022-09-05T01:19:28.540Z,81.18
2022-09-05T01:22:34.950Z,81.41
2022-09-05T01:25:30.089Z,81.81
2022-09-05T01:29:17.208Z,81.98
2022-09-05T01:31:29.386Z,81.72
2022-09-05T01:34:00.744Z,82.00
2022-09-05T01:36:26.060Z,81.75
2022-09-05T01:40:10.695Z,81.54
2022-09-05T01:42:11.476Z,81.80
2022-09-05T01:44:42.035Z,81.88
2022-09-05T01:47:31.096Z,82.22
2022-09-05T01:50:05.812Z,82.24
2022-09-05T01:52:57.600Z,82.39
2022-09-05T01:55:32.289Z,82.40
2022-09-05T01:58:14.115Z,82.43
2022-09-05T02:01:25.390Z,82.67
2022-09-05T02:04:18.595Z,82.70
2022-09-05T02:06:53.265Z,82.90
2022-09-05T02:09:35.905Z,83.16
2022-09-05T02:12:15.203Z,83.35
2022-09-05T02:14:45.709Z,83.01
2022-09-05T02:17:49.666Z,83.14
2022-09-05T02:20:13.063Z,82.89
2022-09-05T02:22:48.033Z,82.70
2022-09-05T02:26:00.208Z,82.77
2022-09-05T02:28:21.699Z,83.02
2022-09-05T02:31:02.152Z,82.82
2022-09-05T02:33:48.660Z,83.16
2022-09-05T02:36:25.417Z,83.05
2022-09-05T02:45:06.607Z,83.52
2022-09-05T02:45:17.571Z,83.24
2022-09-05T02:45:25.347Z,83.18
2022-09-05T02:48:15.712Z,83.20
2022-09-05T02:57:26.856Z,83.08
2022-09-05T02:57:35.419Z,83.11
2022-09-05T02:57:38.161Z,83.42
2022-09-05T03:00:12.191Z,84.38
2022-09-05T03:02:46.137Z,84.39
2022-09-05T03:05:08.755Z,84.69
2022-09-05T03:07:49.828Z,84.99
2022-09-05T03:10:53.671Z,85.31
2022-09-05T03:13:38.712Z,84.92
2022-09-05T03:16:40.589Z,84.73
2022-09-05T03:19:12.811Z,84.38
2022-09-05T03:22:10.309Z,84.60
2022-09-05T03:24:56.165Z,84.53
2022-09-05T03:27:40.518Z,84.30
2022-09-05T03:30:08.556Z,84.51
2022-09-05T03:33:10.127Z,84.45
2022-09-05T03:35:38.459Z,84.20
2022-09-05T03:38:31.776Z,84.58
2022-09-05T03:41:25.306Z,84.03
2022-09-05T03:44:17.539Z,84.38
2022-09-05T03:47:14.573Z,84.39
2022-09-05T03:53:14.658Z,84.37
2022-09-05T03:57:26.663Z,84.26
2022-09-05T03:57:27.546Z,84.44
2022-09-05T03:59:26.575Z,84.40
2022-09-05T04:07:02.033Z,84.14
2022-09-05T04:08:15.371Z,83.56
2022-09-05T04:08:24.859Z,83.96
2022-09-05T04:10:36.331Z,83.67
2022-09-05T04:13:01.846Z,83.80
2022-09-05T04:15:33.392Z,83.58
2022-09-05T04:18:33.562Z,83.44
2022-09-05T04:21:10.225Z,83.92
2022-09-05T04:23:46.453Z,83.78
2022-09-05T04:26:45.832Z,84.15
2022-09-05T04:29:42.509Z,83.89
2022-09-05T04:32:26.358Z,83.64
2022-09-05T04:35:19.235Z,83.18
2022-09-05T04:37:52.105Z,82.84
2022-09-05T04:40:36.719Z,82.57
2022-09-05T04:43:12.551Z,81.80
2022-09-05T04:45:39.995Z,80.59
2022-09-05T04:48:07.696Z,79.63
2022-09-05T04:50:38.105Z,78.68
2022-09-05T04:53:27.036Z,77.66
2022-09-05T04:55:55.436Z,75.86
2022-09-05T05:00:25.763Z,74.86
2022-09-05T05:06:12.052Z,74.29
2022-09-05T05:06:16.276Z,73.86
2022-09-05T05:07:31.207Z,73.00
2022-09-05T05:10:40.530Z,72.68
2022-09-05T05:17:54.428Z,72.97
2022-09-05T05:18:06.382Z,72.25
2022-09-05T05:19:18.637Z,71.72
2022-09-05T05:21:51.917Z,71.11
2022-09-05T05:24:21.757Z,71.44
2022-09-05T05:26:44.880Z,70.53
2022-09-05T05:29:19.377Z,69.21
2022-09-05T05:31:59.484Z,68.92
2022-09-05T05:34:28.114Z,69.16
2022-09-05T05:37:00.499Z,68.56
2022-09-05T05:39:27.484Z,69.22
2022-09-05T05:41:54.292Z,70.42
2022-09-05T05:44:27.944Z,70.73
2022-09-05T05:47:00.388Z,72.28
2022-09-05T05:49:27.148Z,71.96
2022-09-05T05:52:14.288Z,71.47
2022-09-05T05:55:24.349Z,70.71
2022-09-05T05:57:49.497Z,72.12
2022-09-05T06:00:53.334Z,73.19
2022-09-05T06:03:37.900Z,73.45
2022-09-05T06:06:36.050Z,73.50
2022-09-05T06:14:52.791Z,72.23
2022-09-05T06:15:04.805Z,72.79
2022-09-05T06:15:26.131Z,73.40
2022-09-05T06:18:04.421Z,72.30
2022-09-05T06:22:05.042Z,72.29
2022-09-05T06:23:49.706Z,72.94
2022-09-05T06:26:52.152Z,73.18
2022-09-05T06:29:17.480Z,73.70
2022-09-05T06:32:10.028Z,74.03
2022-09-05T06:34:45.062Z,73.33
2022-09-05T06:37:22.420Z,72.27
2022-09-05T06:39:54.253Z,71.59
2022-09-05T06:42:42.065Z,71.75
2022-09-05T06:45:31.484Z,70.68
2022-09-05T06:48:08.724Z,68.42
2022-09-05T06:51:07.543Z,68.61
2022-09-05T06:54:02.378Z,69.17
2022-09-05T06:57:10.198Z,68.60
2022-09-05T07:00:03.478Z,67.88
2022-09-05T07:02:59.800Z,66.33
2022-09-05T07:05:39.888Z,65.66
2022-09-05T07:08:36.393Z,64.17
2022-09-05T07:11:15.882Z,64.58
2022-09-05T07:13:57.803Z,65.03
2022-09-05T07:16:38.948Z,64.90
2022-09-05T07:19:31.666Z,66.02
2022-09-05T07:22:47.040Z,65.31
2022-09-05T07:25:09.415Z,62.49
2022-09-05T07:27:44.400Z,63.16
2022-09-05T07:30:21.178Z,64.45
2022-09-05T07:32:51.722Z,63.44
2022-09-05T07:35:31.117Z,61.65
2022-09-05T07:38:13.863Z,63.07
2022-09-05T07:40:41.660Z,62.99
2022-09-05T07:43:14.244Z,60.71
2022-09-05T07:45:55.686Z,59.67
2022-09-05T07:48:34.805Z,59.83
2022-09-05T07:56:46.499Z,58.67
2022-09-05T07:56:58.898Z,60.45
2022-09-05T07:57:09.785Z,60.84
2022-09-05T07:59:26.435Z,60.82
2022-09-05T08:01:53.196Z,60.61
2022-09-05T08:04:44.699Z,61.26
2022-09-05T08:07:49.878Z,60.35
2022-09-05T08:10:10.775Z,58.60
2022-09-05T08:13:22.489Z,59.10
2022-09-05T08:15:42.588Z,57.84
2022-09-05T08:18:50.166Z,56.46
2022-09-05T08:21:42.075Z,56.15
2022-09-05T08:24:13.862Z,56.86
2022-09-05T08:26:46.420Z,55.11
2022-09-05T08:29:18.302Z,55.44
2022-09-05T08:31:52.774Z,55.64
2022-09-05T08:34:21.569Z,55.68
2022-09-05T08:36:57.932Z,55.65
2022-09-05T08:39:24.559Z,55.51
2022-09-05T08:42:27.786Z,54.91
2022-09-05T08:46:42.599Z,54.19
2022-09-05T08:48:23.669Z,54.36
2022-09-05T08:51:24.869Z,52.87
2022-09-05T08:53:48.373Z,52.67
2022-09-05T08:57:03.874Z,52.64
2022-09-05T08:59:33.343Z,52.22
2022-09-05T09:02:46.082Z,52.54
2022-09-05T09:05:01.203Z,52.48
2022-09-05T09:07:53.225Z,53.05
2022-09-05T09:10:34.032Z,51.58
2022-09-05T09:13:15.159Z,52.22
2022-09-05T09:15:56.722Z,51.89
2022-09-05T09:18:21.386Z,52.17
2022-09-05T09:20:50.088Z,51.76
2022-09-05T09:24:03.272Z,52.06
2022-09-05T09:26:36.031Z,52.11
2022-09-05T09:29:07.016Z,50.88
2022-09-05T09:31:56.438Z,51.93
2022-09-05T09:34:47.217Z,49.95
2022-09-05T09:37:59.613Z,50.83
2022-09-05T09:41:02.771Z,49.78
2022-09-05T09:43:28.364Z,48.79
2022-09-05T09:45:52.262Z,48.56
2022-09-05T09:48:42.229Z,48.22
2022-09-05T09:51:13.890Z,48.62
2022-09-05T09:54:04.154Z,46.55
2022-09-05T09:57:04.001Z,46.54
2022-09-05T10:07:57.425Z,47.06
2022-09-05T10:10:53.206Z,47.48
2022-09-05T10:10:55.576Z,46.35
2022-09-05T10:12:42.353Z,47.44
2022-09-05T10:15:31.622Z,46.70
2022-09-05T10:18:13.978Z,45.43
2022-09-05T10:21:16.813Z,45.60
2022-09-05T10:24:10.594Z,45.26
2022-09-05T10:27:10.244Z,44.84
2022-09-05T10:29:47.271Z,45.48
2022-09-05T10:35:17.076Z,47.50
2022-09-05T10:35:30.094Z,46.56
2022-09-05T10:38:04.469Z,46.91
2022-09-05T10:40:39.679Z,46.52
2022-09-05T10:43:28.186Z,47.85
2022-09-05T10:46:49.472Z,49.05
2022-09-05T10:49:13.819Z,48.52
2022-09-05T10:51:51.841Z,48.35
2022-09-05T10:54:27.047Z,47.99
2022-09-05T10:57:05.204Z,47.75
2022-09-05T11:02:20.213Z,47.36
2022-09-05T11:02:46.722Z,48.35
2022-09-05T11:05:19.426Z,47.91
2022-09-05T11:08:02.977Z,48.84
2022-09-05T11:10:52.163Z,48.61
2022-09-05T11:13:32.967Z,50.36
2022-09-05T11:16:12.739Z,50.34
2022-09-05T11:19:00.155Z,49.84
2022-09-05T11:22:22.626Z,48.93
2022-09-05T11:24:59.784Z,50.67
2022-09-05T11:27:36.212Z,49.94
2022-09-05T11:30:06.944Z,48.39
2022-09-05T11:39:57.508Z,47.06
2022-09-05T11:39:58.952Z,47.88
2022-09-05T11:40:04.008Z,48.50
2022-09-05T11:41:51.277Z,48.28
2022-09-05T11:44:41.764Z,47.18
2022-09-05T11:47:44.610Z,47.56
2022-09-05T11:50:44.190Z,46.94
2022-09-05T11:53:09.620Z,46.97
2022-09-05T11:56:13.859Z,47.16
2022-09-05T11:59:04.953Z,47.15
2022-09-05T12:02:08.389Z,47.10
2022-09-05T12:05:48.410Z,46.21
2022-09-05T12:08:02.729Z,47.09
2022-09-05T12:10:46.725Z,46.63
2022-09-05T12:13:37.038Z,47.37
2022-09-05T12:16:07.510Z,47.11
2022-09-05T12:18:40.756Z,46.62
2022-09-05T12:21:06.149Z,47.51
2022-09-05T12:24:39.449Z,46.72
2022-09-05T12:27:36.592Z,48.14
2022-09-05T12:29:49.449Z,47.48
2022-09-05T12:33:33.960Z,48.02
2022-09-05T12:36:13.011Z,46.60
2022-09-05T12:40:55.184Z,45.25
2022-09-05T12:41:43.408Z,44.86
2022-09-05T12:44:41.481Z,46.13
2022-09-05T12:47:23.077Z,45.08
2022-09-05T12:50:03.350Z,45.27
2022-09-05T12:52:44.219Z,44.78
2022-09-05T12:55:22.557Z,46.05
2022-09-05T13:01:19.023Z,46.22
2022-09-05T13:03:06.816Z,46.52
2022-09-05T13:03:31.854Z,45.68
2022-09-05T13:06:04.267Z,46.18
2022-09-05T13:08:44.128Z,45.57
2022-09-05T13:14:50.168Z,46.30
2022-09-05T13:14:54.908Z,45.70
2022-09-05T13:16:47.103Z,45.02
2022-09-05T13:19:55.535Z,46.85
2022-09-05T13:22:21.677Z,46.74
2022-09-05T13:24:53.377Z,45.23
2022-09-05T13:27:23.748Z,44.88
2022-09-05T13:31:46.948Z,45.58
2022-09-05T13:37:59.939Z,45.48
2022-09-05T13:38:30.437Z,46.29
2022-09-05T13:41:01.455Z,45.05
2022-09-05T13:43:36.577Z,44.99
2022-09-05T13:46:10.964Z,45.01
2022-09-05T13:51:53.962Z,44.63
2022-09-05T13:54:36.575Z,45.23
2022-09-05T13:57:39.366Z,45.27
2022-09-05T14:00:26.667Z,44.40
2022-09-05T14:06:09.976Z,46.06
2022-09-05T14:09:38.073Z,45.03
2022-09-05T14:12:23.482Z,44.39
2022-09-05T14:15:15.728Z,44.52
2022-09-05T14:17:52.812Z,45.02
2022-09-05T14:20:34.957Z,44.74
2022-09-05T14:23:16.064Z,45.10
2022-09-05T14:25:44.436Z,44.29
2022-09-05T14:28:14.099Z,43.87
2022-09-05T14:33:13.808Z,43.48
2022-09-05T14:37:48.279Z,45.36
2022-09-05T14:37:53.211Z,45.23
2022-09-05T14:40:29.125Z,43.82
2022-09-05T14:43:26.986Z,42.40
2022-09-05T14:46:08.516Z,43.14
2022-09-05T14:48:46.395Z,43.70
2022-09-05T14:51:30.038Z,43.08
2022-09-05T14:54:01.493Z,43.08
2022-09-05T14:59:32.639Z,44.16
2022-09-05T15:02:51.037Z,43.72
2022-09-05T15:02:52.381Z,44.63
2022-09-05T15:05:29.169Z,44.96
2022-09-05T15:08:02.082Z,44.55
2022-09-05T15:12:20.852Z,44.90
2022-09-05T15:13:25.776Z,45.37
2022-09-05T15:16:02.455Z,43.89
2022-09-05T15:18:45.636Z,45.11
2022-09-05T15:21:33.360Z,45.26
2022-09-05T15:24:23.970Z,45.19
2022-09-05T15:26:53.103Z,45.60
2022-09-05T15:29:21.896Z,45.14
2022-09-05T15:31:45.914Z,45.63
2022-09-05T15:34:28.332Z,44.92
2022-09-05T15:36:51.126Z,45.65
2022-09-05T15:39:25.929Z,45.72
2022-09-05T15:41:48.811Z,45.95
2022-09-05T15:44:14.101Z,46.02
2022-09-05T15:46:51.647Z,46.69
2022-09-05T15:49:28.443Z,46.81
2022-09-05T15:51:53.918Z,46.78
2022-09-05T15:54:38.734Z,46.66
2022-09-05T15:57:06.065Z,46.60
2022-09-05T15:59:35.908Z,47.26
2022-09-05T16:02:00.963Z,46.86
2022-09-05T16:10:33.646Z,47.38
2022-09-05T16:10:42.031Z,46.77
2022-09-05T16:10:48.666Z,47.00
2022-09-05T16:12:51.498Z,47.39
2022-09-05T16:16:50.122Z,47.86
2022-09-05T16:23:26.371Z,47.79
2022-09-05T16:23:27.188Z,48.30
2022-09-05T16:24:02.465Z,48.47
2022-09-05T16:26:34.456Z,48.64
2022-09-05T16:29:10.435Z,48.70
2022-09-05T16:31:48.592Z,48.91
2022-09-05T16:34:37.263Z,49.45
2022-09-05T16:37:08.400Z,49.90
2022-09-05T16:39:36.020Z,50.21
2022-09-05T16:42:16.425Z,50.33
2022-09-05T16:45:04.340Z,50.70
2022-09-05T16:47:41.564Z,51.10
2022-09-05T16:50:48.002Z,51.37
2022-09-05T16:53:31.111Z,51.55
2022-09-05T16:55:59.829Z,51.86
2022-09-05T16:58:53.515Z,51.88
2022-09-05T17:01:24.149Z,52.33
2022-09-05T17:04:04.533Z,52.60
2022-09-05T17:06:55.639Z,52.75
2022-09-05T17:09:24.319Z,52.81
2022-09-05T17:12:01.498Z,52.75
2022-09-05T17:14:27.265Z,53.07
2022-09-05T17:16:56.374Z,53.17
2022-09-05T17:19:24.116Z,53.31
2022-09-05T17:24:37.120Z,54.01
2022-09-05T17:29:35.290Z,54.77
2022-09-05T17:29:49.898Z,55.11
2022-09-05T17:33:45.653Z,55.24
2022-09-05T17:36:41.251Z,55.16
2022-09-05T17:39:44.934Z,56.43
2022-09-05T17:42:13.551Z,57.00
2022-09-05T17:44:53.681Z,56.25
2022-09-05T17:47:19.466Z,56.43
2022-09-05T17:50:20.716Z,57.21
2022-09-05T17:53:25.284Z,57.32
2022-09-05T17:55:50.320Z,56.54
2022-09-05T17:58:50.036Z,56.35
2022-09-05T18:01:16.246Z,56.56
2022-09-05T18:03:38.828Z,56.31
2022-09-05T18:06:06.667Z,56.40
2022-09-05T18:08:45.087Z,56.39
2022-09-05T18:11:13.970Z,56.85
2022-09-05T18:13:57.340Z,58.09
2022-09-05T18:22:25.438Z,59.94
2022-09-05T18:25:27.964Z,59.93
2022-09-05T18:28:05.278Z,59.79
2022-09-05T18:30:33.256Z,59.73
2022-09-05T18:34:03.425Z,59.51
2022-09-05T18:35:50.709Z,60.48
2022-09-05T18:38:50.314Z,61.85
2022-09-05T18:41:23.285Z,60.55
2022-09-05T18:44:14.057Z,61.89
2022-09-05T18:46:45.603Z,61.58
2022-09-05T18:50:21.699Z,60.72
2022-09-05T18:52:10.635Z,60.93
2022-09-05T18:54:34.884Z,60.95
2022-09-05T18:57:26.165Z,61.45
2022-09-05T18:59:51.437Z,61.19
2022-09-05T19:02:58.489Z,61.93
2022-09-05T19:05:45.543Z,61.77
2022-09-05T19:08:31.983Z,60.92
2022-09-05T19:11:00.232Z,61.63
2022-09-05T19:13:34.474Z,60.80
2022-09-05T19:16:33.116Z,61.63
2022-09-05T19:19:16.433Z,62.60
2022-09-05T19:21:56.271Z,62.65
2022-09-05T19:24:44.859Z,62.06
2022-09-05T19:28:40.677Z,62.17
2022-09-05T19:36:54.501Z,62.72
2022-09-05T19:36:57.053Z,62.95
2022-09-05T19:37:02.707Z,63.00
2022-09-05T19:38:11.213Z,62.47
2022-09-05T19:47:37.064Z,63.63
2022-09-05T19:47:51.727Z,62.50
2022-09-05T19:47:55.868Z,62.64
2022-09-05T19:49:13.264Z,64.08
2022-09-05T19:51:36.871Z,64.03
2022-09-05T19:54:04.578Z,64.31
2022-09-05T19:56:41.201Z,64.61
2022-09-05T19:59:16.674Z,65.39
2022-09-05T20:01:43.216Z,65.90
2022-09-05T20:04:07.196Z,65.85
2022-09-05T20:06:30.975Z,66.25
2022-09-05T20:09:09.703Z,66.83
2022-09-05T20:11:45.638Z,67.32
2022-09-05T20:14:18.215Z,67.31
2022-09-05T20:17:18.376Z,67.32
2022-09-05T20:20:01.696Z,67.37
2022-09-05T20:22:48.089Z,66.84
2022-09-05T20:25:19.872Z,66.70
2022-09-05T20:27:56.556Z,66.63
2022-09-05T20:30:27.010Z,66.49
2022-09-05T20:32:54.679Z,66.09
2022-09-05T20:39:54.162Z,65.77
2022-09-05T20:43:17.275Z,64.86
2022-09-05T20:43:24.590Z,64.84
2022-09-05T20:44:22.595Z,64.91
2022-09-05T20:53:12.477Z,65.02
2022-09-05T20:54:22.175Z,64.99
2022-09-05T20:54:23.439Z,64.26
2022-09-05T20:55:40.161Z,64.33
2022-09-05T20:58:20.002Z,64.40
2022-09-05T21:01:20.639Z,63.31
2022-09-05T21:03:43.579Z,63.97
2022-09-05T21:06:33.391Z,63.02
2022-09-05T21:09:14.967Z,63.41
2022-09-05T21:11:37.779Z,62.33
2022-09-05T21:14:03.759Z,62.26
2022-09-05T21:16:35.695Z,62.52
2022-09-05T21:18:58.543Z,62.66
2022-09-05T21:21:34.933Z,62.61
2022-09-05T21:24:16.821Z,62.89
2022-09-05T21:26:41.083Z,63.18
2022-09-05T21:29:12.441Z,63.29
2022-09-05T21:31:44.504Z,63.39
2022-09-05T21:34:14.163Z,63.08
2022-09-05T21:36:37.206Z,62.91
2022-09-05T21:38:59.809Z,62.61
2022-09-05T21:41:22.570Z,63.25
2022-09-05T21:47:33.879Z,63.05
2022-09-05T21:47:38.027Z,63.12
2022-09-05T21:49:11.586Z,64.15
2022-09-05T21:51:34.351Z,63.82
2022-09-05T21:59:21.753Z,64.43
2022-09-05T21:59:32.962Z,64.86
2022-09-05T21:59:55.622Z,64.89
2022-09-05T22:02:18.747Z,65.10
2022-09-05T22:04:42.061Z,65.31
2022-09-05T22:07:05.073Z,65.63
2022-09-05T22:09:27.972Z,66.13
2022-09-05T22:11:51.233Z,66.65
2022-09-05T22:14:13.892Z,67.32
2022-09-05T22:16:44.971Z,67.73
2022-09-05T22:19:08.076Z,67.99
2022-09-05T22:21:37.275Z,67.96
2022-09-05T22:24:05.200Z,67.80
2022-09-05T22:26:44.773Z,67.37
2022-09-05T22:29:24.957Z,66.89
2022-09-05T22:31:48.140Z,67.30
2022-09-05T22:34:11.202Z,67.72
2022-09-05T22:36:35.373Z,68.27
2022-09-05T22:38:57.996Z,68.51
2022-09-05T22:41:30.431Z,68.73
2022-09-05T22:43:53.896Z,68.95
2022-09-05T22:46:16.695Z,68.79
2022-09-05T22:48:39.319Z,68.88
2022-09-05T22:51:01.926Z,69.16
2022-09-05T22:53:24.534Z,69.31
2022-09-05T22:55:55.061Z,69.46
2022-09-05T22:58:17.860Z,69.53
2022-09-05T23:00:41.707Z,69.55
2022-09-05T23:03:06.320Z,69.88
2022-09-05T23:05:29.867Z,70.09
2022-09-05T23:07:52.815Z,70.14
2022-09-05T23:10:15.483Z,69.74
2022-09-05T23:12:38.076Z,69.58
2022-09-05T23:15:00.564Z,69.60
2022-09-05T23:17:23.439Z,69.28
2022-09-05T23:19:45.920Z,68.72
2022-09-05T23:22:08.638Z,68.96
2022-09-05T23:24:31.243Z,69.33
2022-09-05T23:26:53.949Z,68.56
2022-09-05T23:29:16.700Z,68.14
2022-09-05T23:31:39.754Z,68.48
2022-09-05T23:34:02.328Z,68.10
2022-09-05T23:36:24.870Z,68.68
2022-09-05T23:38:47.403Z,68.05
2022-09-05T23:41:14.003Z,68.56
2022-09-05T23:43:37.075Z,68.96
2022-09-05T23:46:00.613Z,69.23
2022-09-05T23:48:24.632Z,69.43
2022-09-05T23:50:48.024Z,69.18
2022-09-05T23:53:10.650Z,69.79
2022-09-05T23:55:33.491Z,70.29
2022-09-05T23:57:59.151Z,70.69
